createdAt,value
2022-10-05T00:00:27.587Z,10.10
2022-10-05T00:06:51.600Z,9.30
2022-10-05T00:10:41.122Z,9.40
2022-10-05T00:14:33.582Z,10.20
2022-10-05T00:21:35.870Z,8.80
2022-10-05T00:24:37.632Z,9.10
2022-10-05T00:27:50.630Z,9.30
2022-10-05T00:30:53.701Z,8.80
2022-10-05T00:33:58.925Z,10.20
2022-10-05T00:37:02.581Z,9.80
2022-10-05T00:40:02.563Z,9.00
2022-10-05T00:43:02.670Z,9.50
2022-10-05T00:46:09.919Z,9.30
2022-10-05T00:49:11.488Z,9.50
2022-10-05T00:52:11.795Z,9.10
2022-10-05T00:55:15.696Z,8.80
2022-10-05T00:58:31.496Z,8.30
2022-10-05T01:01:44.587Z,8.90
2022-10-05T01:04:54.464Z,8.60
2022-10-05T01:08:17.842Z,9.00
2022-10-05T01:11:19.678Z,8.70
2022-10-05T01:14:21.854Z,8.60
2022-10-05T01:17:20.853Z,9.00
2022-10-05T01:20:25.537Z,9.30
2022-10-05T01:23:33.880Z,9.60
2022-10-05T01:26:53.861Z,11.00
2022-10-05T01:30:04.778Z,9.60
2022-10-05T01:33:15.727Z,11.10
2022-10-05T01:36:22.582Z,9.40
2022-10-05T01:39:29.736Z,12.70
2022-10-05T01:42:46.842Z,11.70
2022-10-05T01:45:57.824Z,10.80
2022-10-05T01:49:14.544Z,10.80
2022-10-05T01:52:21.704Z,11.20
2022-10-05T01:55:29.764Z,10.40
2022-10-05T01:58:31.497Z,10.50
2022-10-05T02:07:43.830Z,10.60
2022-10-05T02:10:48.541Z,10.40
2022-10-05T02:20:10.524Z,9.40
2022-10-05T02:23:12.375Z,9.90
2022-10-05T02:26:14.473Z,10.40
2022-10-05T02:29:30.804Z,11.40
2022-10-05T02:32:38.751Z,9.00
2022-10-05T02:35:46.594Z,9.30
2022-10-05T02:38:54.737Z,8.90
2022-10-05T02:42:02.677Z,10.30
2022-10-05T02:46:13.441Z,11.00
2022-10-05T02:50:14.484Z,10.20
2022-10-05T02:54:06.750Z,10.10
2022-10-05T02:58:02.040Z,10.00
2022-10-05T03:04:01.646Z,9.20
2022-10-05T03:08:08.854Z,8.60
2022-10-05T03:12:10.116Z,9.40
2022-10-05T03:16:11.396Z,6.80
2022-10-05T03:20:02.049Z,9.40
2022-10-05T03:23:24.811Z,6.80
2022-10-05T03:26:29.488Z,8.50
2022-10-05T03:29:52.799Z,7.00
2022-10-05T03:33:24.365Z,8.20
2022-10-05T03:36:40.794Z,7.60
2022-10-05T03:39:48.404Z,6.80
2022-10-05T03:42:53.389Z,6.70
2022-10-05T03:53:10.488Z,8.10
2022-10-05T03:56:17.525Z,6.90
2022-10-05T03:59:20.734Z,6.20
2022-10-05T04:02:25.494Z,7.40
2022-10-05T04:05:28.716Z,7.20
2022-10-05T04:09:35.764Z,8.00
2022-10-05T04:13:40.117Z,7.40
2022-10-05T04:17:53.080Z,7.30
2022-10-05T04:21:48.597Z,5.30
2022-10-05T04:28:59.761Z,7.10
2022-10-05T04:32:10.583Z,6.70
2022-10-05T04:35:21.346Z,7.70
2022-10-05T04:38:41.734Z,6.70
2022-10-05T04:41:55.432Z,6.00
2022-10-05T04:45:02.231Z,5.10
2022-10-05T04:48:18.419Z,6.50
2022-10-05T04:51:32.592Z,6.70
2022-10-05T04:55:04.693Z,6.10
2022-10-05T04:58:09.688Z,6.10
2022-10-05T05:00:52.941Z,5.80
2022-10-05T05:03:46.292Z,6.20
2022-10-05T05:06:28.002Z,6.30
2022-10-05T05:09:17.449Z,6.30
2022-10-05T05:11:59.229Z,6.70
2022-10-05T05:15:05.247Z,5.90
2022-10-05T05:17:33.904Z,5.50
2022-10-05T05:20:18.707Z,6.30
2022-10-05T05:23:28.081Z,6.90
2022-10-05T05:26:29.325Z,6.90
2022-10-05T05:29:34.841Z,6.30
2022-10-05T05:32:19.288Z,6.30
2022-10-05T05:35:03.143Z,7.30
2022-10-05T05:38:07.938Z,7.30
2022-10-05T05:40:52.013Z,6.70
2022-10-05T05:44:15.410Z,6.40
2022-10-05T05:47:04.814Z,6.70
2022-10-05T05:50:20.101Z,6.90
2022-10-05T05:53:03.727Z,6.70
2022-10-05T05:55:48.183Z,5.10
2022-10-05T05:58:25.858Z,5.60
2022-10-05T06:01:31.850Z,6.30
2022-10-05T06:04:13.088Z,6.10
2022-10-05T06:06:51.382Z,6.70
2022-10-05T06:09:47.564Z,6.30
2022-10-05T06:12:28.500Z,6.30
2022-10-05T06:15:02.446Z,6.10
2022-10-05T06:17:55.416Z,6.00
2022-10-05T06:20:38.711Z,7.00
2022-10-05T06:23:34.614Z,6.70
2022-10-05T06:26:33.250Z,6.30
2022-10-05T06:29:09.027Z,6.30
2022-10-05T06:31:46.514Z,6.30
2022-10-05T06:34:32.258Z,6.20
2022-10-05T06:37:13.555Z,5.80
2022-10-05T06:40:00.857Z,5.50
2022-10-05T06:42:55.933Z,5.80
2022-10-05T06:45:47.117Z,5.30
2022-10-05T06:49:06.644Z,5.40
2022-10-05T06:52:13.779Z,5.80
2022-10-05T06:55:08.629Z,5.50
2022-10-05T06:58:21.225Z,5.70
2022-10-05T07:00:59.089Z,6.00
2022-10-05T07:03:31.837Z,5.20
2022-10-05T07:06:14.954Z,5.40
2022-10-05T07:09:17.721Z,6.10
2022-10-05T07:12:08.147Z,5.90
2022-10-05T07:14:48.987Z,6.10
2022-10-05T07:18:05.417Z,5.40
2022-10-05T07:20:53.709Z,4.70
2022-10-05T07:23:54.673Z,5.40
2022-10-05T07:26:34.797Z,5.30
2022-10-05T07:29:49.948Z,5.40
2022-10-05T07:32:43.113Z,6.00
2022-10-05T07:35:39.899Z,5.20
2022-10-05T07:38:20.008Z,5.60
2022-10-05T07:40:59.665Z,4.40
2022-10-05T07:44:02.146Z,4.50
2022-10-05T07:46:52.466Z,4.50
2022-10-05T07:49:47.617Z,4.80
2022-10-05T07:52:23.153Z,4.90
2022-10-05T07:55:12.521Z,4.50
2022-10-05T07:57:52.932Z,4.40
2022-10-05T08:00:24.972Z,4.40
2022-10-05T08:03:10.743Z,4.60
2022-10-05T08:05:45.412Z,3.50
2022-10-05T08:08:31.875Z,2.90
2022-10-05T08:11:20.302Z,2.90
2022-10-05T08:14:31.633Z,2.50
2022-10-05T08:17:16.952Z,2.80
2022-10-05T08:19:59.771Z,1.90
2022-10-05T08:22:43.352Z,2.00
2022-10-05T08:25:40.713Z,2.60
2022-10-05T08:28:31.841Z,2.30
2022-10-05T08:31:33.875Z,2.70
2022-10-05T08:34:35.112Z,2.50
2022-10-05T08:37:16.072Z,2.40
2022-10-05T08:40:04.114Z,2.30
2022-10-05T08:43:08.910Z,2.00
2022-10-05T08:46:05.177Z,1.60
2022-10-05T08:48:58.768Z,1.80
2022-10-05T08:52:07.172Z,1.70
2022-10-05T08:55:10.731Z,1.50
2022-10-05T08:57:46.906Z,1.90
2022-10-05T09:00:24.412Z,1.70
2022-10-05T09:03:38.814Z,1.40
2022-10-05T09:06:26.044Z,1.60
2022-10-05T09:09:25.272Z,1.60
2022-10-05T09:12:30.953Z,2.20
2022-10-05T09:15:30.021Z,1.80
2022-10-05T09:18:17.313Z,2.00
2022-10-05T09:20:54.173Z,1.60
2022-10-05T09:23:37.952Z,1.90
2022-10-05T09:26:42.812Z,1.70
2022-10-05T09:29:44.984Z,2.40
2022-10-05T09:32:31.377Z,1.80
2022-10-05T09:35:33.765Z,1.80
2022-10-05T09:38:44.234Z,1.80
2022-10-05T09:41:54.813Z,1.90
2022-10-05T09:44:46.630Z,1.80
2022-10-05T09:47:45.592Z,1.40
2022-10-05T09:51:08.153Z,1.80
2022-10-05T09:54:11.111Z,1.80
2022-10-05T09:57:12.280Z,1.80
2022-10-05T09:59:43.494Z,2.10
2022-10-05T10:02:27.809Z,1.60
2022-10-05T10:05:25.072Z,1.30
2022-10-05T10:08:34.913Z,2.10
2022-10-05T10:12:16.052Z,1.90
2022-10-05T10:15:21.472Z,2.10
2022-10-05T10:18:26.871Z,2.20
2022-10-05T10:21:44.082Z,1.50
2022-10-05T10:25:08.912Z,1.70
2022-10-05T10:28:18.173Z,1.80
2022-10-05T10:31:16.978Z,1.80
2022-10-05T10:34:32.222Z,1.90
2022-10-05T10:37:21.553Z,1.50
2022-10-05T10:40:35.144Z,1.50
2022-10-05T10:43:39.632Z,1.50
2022-10-05T10:46:45.262Z,1.60
2022-10-05T10:49:35.662Z,1.40
2022-10-05T10:52:20.393Z,1.70
2022-10-05T10:55:06.485Z,1.30
2022-10-05T10:58:50.915Z,1.60
2022-10-05T11:01:59.937Z,1.50
2022-10-05T11:05:25.815Z,1.60
2022-10-05T11:08:12.961Z,1.20
2022-10-05T11:11:05.959Z,1.40
2022-10-05T11:14:03.702Z,1.40
2022-10-05T11:17:16.512Z,1.90
2022-10-05T11:20:16.145Z,1.50
2022-10-05T11:23:10.544Z,1.70
2022-10-05T11:25:51.405Z,1.80
2022-10-05T11:28:40.729Z,2.00
2022-10-05T11:31:48.782Z,1.60
2022-10-05T11:34:50.754Z,1.30
2022-10-05T11:37:59.497Z,1.20
2022-10-05T11:41:02.490Z,1.30
2022-10-05T11:44:13.897Z,1.10
2022-10-05T11:47:10.895Z,1.40
2022-10-05T11:49:47.925Z,1.60
2022-10-05T11:52:46.663Z,1.00
2022-10-05T11:56:19.521Z,1.40
2022-10-05T11:58:54.527Z,1.20
2022-10-05T12:01:38.556Z,1.20
2022-10-05T12:04:09.904Z,1.10
2022-10-05T12:06:54.872Z,1.50
2022-10-05T12:09:38.782Z,1.20
2022-10-05T12:12:29.240Z,1.10
2022-10-05T12:15:20.654Z,1.20
2022-10-05T12:17:55.671Z,1.30
2022-10-05T12:20:46.676Z,1.10
2022-10-05T12:23:37.876Z,1.00
2022-10-05T12:26:16.841Z,1.60
2022-10-05T12:28:53.856Z,1.50
2022-10-05T12:31:43.605Z,1.60
2022-10-05T12:34:33.340Z,1.50
2022-10-05T12:37:46.769Z,1.30
2022-10-05T12:40:40.496Z,0.80
2022-10-05T12:43:27.067Z,1.20
2022-10-05T12:46:43.409Z,0.90
2022-10-05T12:49:56.517Z,1.30
2022-10-05T12:53:15.635Z,1.50
2022-10-05T12:56:11.877Z,1.30
2022-10-05T12:59:10.744Z,1.20
2022-10-05T13:01:49.443Z,1.20
2022-10-05T13:04:53.496Z,1.40
2022-10-05T13:07:46.196Z,0.90
2022-10-05T13:10:38.564Z,1.20
2022-10-05T13:13:28.154Z,1.30
2022-10-05T13:16:17.448Z,1.30
2022-10-05T13:19:04.980Z,1.30
2022-10-05T13:22:04.915Z,1.40
2022-10-05T13:25:26.188Z,1.20
2022-10-05T13:28:22.128Z,1.00
2022-10-05T13:31:23.605Z,1.00
2022-10-05T13:34:15.731Z,0.90
2022-10-05T13:37:24.382Z,1.30
2022-10-05T13:40:05.105Z,1.10
2022-10-05T13:43:04.372Z,1.40
2022-10-05T13:45:41.888Z,1.30
2022-10-05T13:48:19.239Z,1.30
2022-10-05T13:51:18.952Z,0.90
2022-10-05T13:54:15.542Z,1.10
2022-10-05T13:56:53.397Z,1.30
2022-10-05T13:59:33.214Z,1.00
2022-10-05T14:02:11.431Z,1.40
2022-10-05T14:04:49.875Z,0.90
2022-10-05T14:07:32.027Z,1.50
2022-10-05T14:10:03.703Z,1.30
2022-10-05T14:12:46.166Z,1.10
2022-10-05T14:15:30.229Z,1.30
2022-10-05T14:17:59.121Z,1.10
2022-10-05T14:20:34.574Z,1.20
2022-10-05T14:23:17.301Z,1.10
2022-10-05T14:25:55.092Z,1.00
2022-10-05T14:28:26.440Z,1.30
2022-10-05T14:31:13.297Z,1.20
2022-10-05T14:33:42.969Z,1.10
2022-10-05T14:36:25.048Z,1.30
2022-10-05T14:39:02.458Z,1.30
2022-10-05T14:41:37.972Z,1.10
2022-10-05T14:44:24.462Z,1.70
2022-10-05T14:47:02.909Z,1.50
2022-10-05T14:49:36.571Z,1.40
2022-10-05T14:52:32.977Z,1.50
2022-10-05T14:55:31.522Z,2.10
2022-10-05T14:58:24.831Z,2.30
2022-10-05T15:01:05.880Z,1.90
2022-10-05T15:04:03.632Z,1.70
2022-10-05T15:06:43.012Z,1.90
2022-10-05T15:09:47.758Z,1.40
2022-10-05T15:12:33.417Z,2.50
2022-10-05T15:15:29.857Z,2.40
2022-10-05T15:18:06.470Z,2.30
2022-10-05T15:20:53.793Z,2.00
2022-10-05T15:27:01.415Z,2.90
2022-10-05T15:30:25.796Z,2.80
2022-10-05T15:33:25.446Z,3.30
2022-10-05T15:36:43.386Z,3.80
2022-10-05T15:39:36.458Z,3.90
2022-10-05T15:42:16.938Z,3.30
2022-10-05T15:45:14.203Z,2.80
2022-10-05T15:48:52.056Z,2.20
2022-10-05T15:51:58.293Z,1.90
2022-10-05T15:55:19.167Z,1.90
2022-10-05T15:58:47.430Z,1.80
2022-10-05T16:01:53.067Z,1.80
2022-10-05T16:05:10.298Z,2.10
2022-10-05T16:08:13.168Z,2.10
2022-10-05T16:10:47.437Z,2.40
2022-10-05T16:13:44.317Z,2.70
2022-10-05T16:16:42.975Z,3.90
2022-10-05T16:19:37.547Z,7.60
2022-10-05T16:22:47.796Z,6.20
2022-10-05T16:26:14.721Z,3.40
2022-10-05T16:29:15.707Z,3.10
2022-10-05T16:32:30.907Z,5.10
2022-10-05T16:35:30.567Z,5.10
2022-10-05T16:38:21.913Z,4.40
2022-10-05T16:41:38.823Z,3.00
2022-10-05T16:44:36.842Z,2.60
2022-10-05T16:47:42.052Z,2.70
2022-10-05T16:50:25.060Z,4.70
2022-10-05T16:53:04.324Z,4.80
2022-10-05T16:55:41.531Z,3.60
2022-10-05T16:58:50.053Z,4.00
2022-10-05T17:02:02.013Z,4.10
2022-10-05T17:05:36.867Z,3.90
2022-10-05T17:08:34.007Z,4.00
2022-10-05T17:11:34.693Z,4.20
2022-10-05T17:14:27.489Z,3.60
2022-10-05T17:17:25.129Z,5.40
2022-10-05T17:20:54.867Z,3.60
2022-10-05T17:23:55.946Z,5.10
2022-10-05T17:26:56.566Z,5.00
2022-10-05T17:30:16.327Z,4.10
2022-10-05T17:33:24.593Z,4.20
2022-10-05T17:36:09.009Z,5.00
2022-10-05T17:39:13.817Z,4.70
2022-10-05T17:41:44.070Z,5.30
2022-10-05T17:44:27.491Z,4.00
2022-10-05T17:47:04.989Z,5.00
2022-10-05T17:50:18.342Z,5.40
2022-10-05T17:54:00.852Z,5.20
2022-10-05T17:56:34.087Z,5.90
2022-10-05T17:59:07.887Z,4.60
2022-10-05T18:01:41.831Z,5.80
2022-10-05T18:04:13.711Z,6.30
2022-10-05T18:06:59.387Z,5.90
2022-10-05T18:09:28.267Z,6.20
2022-10-05T18:12:19.908Z,5.70
2022-10-05T18:15:14.607Z,6.50
2022-10-05T18:17:51.636Z,6.20
2022-10-05T18:20:32.050Z,6.50
2022-10-05T18:23:07.492Z,6.70
2022-10-05T18:26:20.914Z,7.80
2022-10-05T18:29:59.447Z,7.80
2022-10-05T18:32:31.608Z,7.60
2022-10-05T18:35:13.927Z,7.50
2022-10-05T18:38:00.031Z,8.10
2022-10-05T18:41:09.666Z,7.90
2022-10-05T18:43:41.357Z,7.70
2022-10-05T18:46:35.943Z,7.10
2022-10-05T18:49:11.047Z,5.50
2022-10-05T18:51:52.023Z,4.40
2022-10-05T18:54:39.863Z,5.10
2022-10-05T18:57:45.919Z,4.60
2022-10-05T19:00:34.678Z,4.80
2022-10-05T19:03:40.638Z,5.20
2022-10-05T19:06:13.747Z,5.10
2022-10-05T19:08:55.657Z,4.20
2022-10-05T19:11:55.450Z,5.10
2022-10-05T19:14:55.691Z,4.70
2022-10-05T19:17:54.787Z,4.40
2022-10-05T19:20:40.277Z,4.40
2022-10-05T19:23:56.854Z,4.30
2022-10-05T19:27:02.237Z,3.90
2022-10-05T19:29:42.563Z,3.40
2022-10-05T19:33:07.767Z,4.30
2022-10-05T19:36:17.426Z,3.60
2022-10-05T19:39:04.237Z,4.00
2022-10-05T19:42:07.528Z,3.90
2022-10-05T19:45:00.507Z,3.90
2022-10-05T19:48:07.737Z,3.80
2022-10-05T19:50:59.642Z,4.50
2022-10-05T19:53:47.275Z,3.70
2022-10-05T19:56:26.803Z,5.10
2022-10-05T19:59:00.784Z,4.70
2022-10-05T20:01:39.342Z,4.30
2022-10-05T20:04:09.832Z,3.70
2022-10-05T20:06:40.043Z,4.20
2022-10-05T20:09:23.714Z,4.20
2022-10-05T20:11:54.118Z,3.60
2022-10-05T20:14:58.557Z,3.90
2022-10-05T20:17:48.087Z,2.60
2022-10-05T20:20:44.543Z,3.80
2022-10-05T20:23:30.853Z,2.90
2022-10-05T20:26:18.281Z,4.00
2022-10-05T20:28:48.229Z,4.90
2022-10-05T20:31:20.580Z,4.40
2022-10-05T20:33:49.367Z,4.30
2022-10-05T20:36:18.063Z,3.50
2022-10-05T20:38:46.844Z,3.10
2022-10-05T20:41:17.056Z,3.60
2022-10-05T20:43:45.643Z,3.90
2022-10-05T20:46:14.351Z,3.70
2022-10-05T20:48:44.043Z,4.00
2022-10-05T20:51:12.645Z,3.50
2022-10-05T20:53:58.950Z,4.20
2022-10-05T20:56:27.765Z,3.40
2022-10-05T20:58:56.912Z,4.50
2022-10-05T21:01:27.313Z,3.70
2022-10-05T21:03:56.443Z,4.40
2022-10-05T21:06:28.953Z,3.00
2022-10-05T21:08:57.594Z,3.90
2022-10-05T21:11:26.079Z,3.60
2022-10-05T21:13:54.951Z,4.60
2022-10-05T21:16:25.336Z,4.20
2022-10-05T21:18:53.986Z,4.00
2022-10-05T21:21:23.183Z,3.70
2022-10-05T21:23:51.883Z,3.80
2022-10-05T21:26:21.373Z,3.60
2022-10-05T21:28:50.299Z,3.60
2022-10-05T21:31:19.302Z,3.10
2022-10-05T21:33:47.986Z,3.80
2022-10-05T21:36:22.425Z,3.60
2022-10-05T21:38:55.354Z,3.60
2022-10-05T21:41:24.442Z,4.00
2022-10-05T21:43:53.043Z,3.40
2022-10-05T21:49:23.875Z,3.70
2022-10-05T21:51:52.959Z,3.80
2022-10-05T21:54:24.421Z,4.60
2022-10-05T21:56:58.841Z,4.50
2022-10-05T22:03:00.001Z,3.80
2022-10-05T22:06:25.998Z,4.00
2022-10-05T22:09:33.861Z,4.40
2022-10-05T22:12:39.007Z,2.50
2022-10-05T22:15:36.897Z,2.90
2022-10-05T22:19:26.407Z,2.90
2022-10-05T22:27:07.900Z,3.40
2022-10-05T22:30:14.917Z,3.10
2022-10-05T22:33:17.136Z,3.40
2022-10-05T22:36:14.086Z,3.30
2022-10-05T22:39:20.330Z,3.10
2022-10-05T22:50:07.859Z,3.60
2022-10-05T22:53:57.519Z,2.40
2022-10-05T22:57:47.267Z,2.60
2022-10-05T23:01:47.842Z,2.90
2022-10-05T23:05:37.859Z,2.50
2022-10-05T23:08:43.100Z,3.10
2022-10-05T23:11:54.026Z,2.60
2022-10-05T23:14:54.110Z,2.50
2022-10-05T23:18:04.281Z,2.40
2022-10-05T23:22:04.530Z,3.20
2022-10-05T23:25:06.918Z,4.00
2022-10-05T23:32:20.110Z,4.10
2022-10-05T23:36:10.759Z,3.60
2022-10-05T23:47:09.707Z,3.30
2022-10-05T23:50:10.801Z,3.80
2022-10-05T23:53:22.896Z,4.40
2022-10-05T23:56:29.310Z,3.50
2022-10-05T23:59:30.957Z,3.20
